sensor_id;sensor_type;location;lat;lon;timestamp;temperature;humidity
7192;DHT22;3637;51.494;11.958;2022-10-29T00:00:20;15.10;99.90
7192;DHT22;3637;51.494;11.958;2022-10-29T00:03:23;15.10;99.90
7192;DHT22;3637;51.494;11.958;2022-10-29T00:06:25;15.00;99.90
7192;DHT22;3637;51.494;11.958;2022-10-29T00:09:27;15.00;99.90
7192;DHT22;3637;51.494;11.958;2022-10-29T00:12:31;15.00;99.90
7192;DHT22;3637;51.494;11.958;2022-10-29T00:15:33;15.00;99.90
7192;DHT22;3637;51.494;11.958;2022-10-29T00:18:35;15.00;99.90
7192;DHT22;3637;51.494;11.958;2022-10-29T00:21:37;15.00;99.90
7192;DHT22;3637;51.494;11.958;2022-10-29T00:24:39;14.90;99.90
7192;DHT22;3637;51.494;11.958;2022-10-29T00:27:43;14.90;99.90
7192;DHT22;3637;51.494;11.958;2022-10-29T00:30:45;14.90;99.90
7192;DHT22;3637;51.494;11.958;2022-10-29T00:33:47;14.90;99.90
7192;DHT22;3637;51.494;11.958;2022-10-29T00:36:49;15.10;99.90
7192;DHT22;3637;51.494;11.958;2022-10-29T00:39:51;15.00;99.90
7192;DHT22;3637;51.494;11.958;2022-10-29T00:43:12;14.90;99.90
7192;DHT22;3637;51.494;11.958;2022-10-29T00:46:17;14.80;99.90
7192;DHT22;3637;51.494;11.958;2022-10-29T00:49:21;14.70;99.90
7192;DHT22;3637;51.494;11.958;2022-10-29T00:52:25;14.60;99.90
7192;DHT22;3637;51.494;11.958;2022-10-29T00:55:31;14.60;99.90
7192;DHT22;3637;51.494;11.958;2022-10-29T00:58:34;14.60;99.90
7192;DHT22;3637;51.494;11.958;2022-10-29T01:01:37;14.80;99.90
7192;DHT22;3637;51.494;11.958;2022-10-29T01:04:41;14.40;99.90
7192;DHT22;3637;51.494;11.958;2022-10-29T01:07:44;14.60;99.90
7192;DHT22;3637;51.494;11.958;2022-10-29T01:10:56;14.70;99.90
7192;DHT22;3637;51.494;11.958;2022-10-29T01:14:07;14.80;99.90
7192;DHT22;3637;51.494;11.958;2022-10-29T01:17:21;14.50;99.90
7192;DHT22;3637;51.494;11.958;2022-10-29T01:20:42;14.50;99.90
7192;DHT22;3637;51.494;11.958;2022-10-29T01:27:50;14.50;99.90
7192;DHT22;3637;51.494;11.958;2022-10-29T01:31:15;14.50;99.90
7192;DHT22;3637;51.494;11.958;2022-10-29T01:34:23;14.50;99.90
7192;DHT22;3637;51.494;11.958;2022-10-29T01:37:32;14.50;99.90
7192;DHT22;3637;51.494;11.958;2022-10-29T01:40:45;14.30;99.90
7192;DHT22;3637;51.494;11.958;2022-10-29T01:43:50;14.50;99.90
7192;DHT22;3637;51.494;11.958;2022-10-29T01:47:00;14.50;99.90
7192;DHT22;3637;51.494;11.958;2022-10-29T01:50:05;14.50;99.90
7192;DHT22;3637;51.494;11.958;2022-10-29T01:53:09;14.50;99.90
7192;DHT22;3637;51.494;11.958;2022-10-29T01:56:11;14.40;99.90
7192;DHT22;3637;51.494;11.958;2022-10-29T01:59:13;14.40;99.90
7192;DHT22;3637;51.494;11.958;2022-10-29T02:02:23;14.40;99.90
7192;DHT22;3637;51.494;11.958;2022-10-29T02:05:31;14.40;99.90
7192;DHT22;3637;51.494;11.958;2022-10-29T02:08:40;14.30;99.90
7192;DHT22;3637;51.494;11.958;2022-10-29T02:11:51;14.30;99.90
7192;DHT22;3637;51.494;11.958;2022-10-29T02:14:58;14.30;99.90
7192;DHT22;3637;51.494;11.958;2022-10-29T02:18:06;14.30;99.90
7192;DHT22;3637;51.494;11.958;2022-10-29T02:21:08;14.30;99.90
7192;DHT22;3637;51.494;11.958;2022-10-29T02:24:10;14.20;99.90
7192;DHT22;3637;51.494;11.958;2022-10-29T02:27:12;14.30;99.90
7192;DHT22;3637;51.494;11.958;2022-10-29T02:30:14;14.20;99.90
7192;DHT22;3637;51.494;11.958;2022-10-29T02:33:18;14.20;99.90
7192;DHT22;3637;51.494;11.958;2022-10-29T02:36:21;14.20;99.90
7192;DHT22;3637;51.494;11.958;2022-10-29T02:39:22;14.30;99.90
7192;DHT22;3637;51.494;11.958;2022-10-29T02:42:24;14.10;99.90
7192;DHT22;3637;51.494;11.958;2022-10-29T02:45:26;14.10;99.90
7192;DHT22;3637;51.494;11.958;2022-10-29T02:48:30;14.00;99.90
7192;DHT22;3637;51.494;11.958;2022-10-29T02:51:31;14.00;99.90
7192;DHT22;3637;51.494;11.958;2022-10-29T02:54:33;14.10;99.90
7192;DHT22;3637;51.494;11.958;2022-10-29T02:57:35;14.10;99.90
7192;DHT22;3637;51.494;11.958;2022-10-29T03:00:37;14.00;99.90
7192;DHT22;3637;51.494;11.958;2022-10-29T03:03:40;14.00;99.90
7192;DHT22;3637;51.494;11.958;2022-10-29T03:06:42;14.10;99.90
7192;DHT22;3637;51.494;11.958;2022-10-29T03:09:44;14.00;99.90
7192;DHT22;3637;51.494;11.958;2022-10-29T03:12:46;14.00;99.90
7192;DHT22;3637;51.494;11.958;2022-10-29T03:15:48;14.10;99.90
7192;DHT22;3637;51.494;11.958;2022-10-29T03:18:51;14.00;99.90
7192;DHT22;3637;51.494;11.958;2022-10-29T03:21:53;14.10;99.90
7192;DHT22;3637;51.494;11.958;2022-10-29T03:24:55;14.00;99.90
7192;DHT22;3637;51.494;11.958;2022-10-29T03:27:57;13.90;99.90
7192;DHT22;3637;51.494;11.958;2022-10-29T03:30:59;13.80;99.90
7192;DHT22;3637;51.494;11.958;2022-10-29T03:34:02;13.80;99.90
7192;DHT22;3637;51.494;11.958;2022-10-29T03:37:04;13.90;99.90
7192;DHT22;3637;51.494;11.958;2022-10-29T03:40:07;13.70;99.90
7192;DHT22;3637;51.494;11.958;2022-10-29T03:43:09;13.70;99.90
7192;DHT22;3637;51.494;11.958;2022-10-29T03:46:11;13.70;99.90
7192;DHT22;3637;51.494;11.958;2022-10-29T03:49:14;13.70;99.90
7192;DHT22;3637;51.494;11.958;2022-10-29T03:52:17;13.70;99.90
7192;DHT22;3637;51.494;11.958;2022-10-29T03:55:19;13.60;99.90
7192;DHT22;3637;51.494;11.958;2022-10-29T03:58:21;13.70;99.90
7192;DHT22;3637;51.494;11.958;2022-10-29T04:01:23;13.60;99.90
7192;DHT22;3637;51.494;11.958;2022-10-29T04:04:26;13.60;99.90
7192;DHT22;3637;51.494;11.958;2022-10-29T04:07:28;13.60;99.90
7192;DHT22;3637;51.494;11.958;2022-10-29T04:10:31;13.60;99.90
7192;DHT22;3637;51.494;11.958;2022-10-29T04:13:33;13.60;99.90
7192;DHT22;3637;51.494;11.958;2022-10-29T04:16:35;13.60;99.90
7192;DHT22;3637;51.494;11.958;2022-10-29T04:19:39;13.60;99.90
7192;DHT22;3637;51.494;11.958;2022-10-29T04:22:41;13.60;99.90
7192;DHT22;3637;51.494;11.958;2022-10-29T04:25:43;13.60;99.90
7192;DHT22;3637;51.494;11.958;2022-10-29T04:28:55;13.60;99.90
7192;DHT22;3637;51.494;11.958;2022-10-29T04:31:56;13.60;99.90
7192;DHT22;3637;51.494;11.958;2022-10-29T04:35:00;13.50;99.90
7192;DHT22;3637;51.494;11.958;2022-10-29T04:38:07;13.50;99.90
7192;DHT22;3637;51.494;11.958;2022-10-29T04:41:09;13.50;99.90
7192;DHT22;3637;51.494;11.958;2022-10-29T04:44:10;13.50;99.90
7192;DHT22;3637;51.494;11.958;2022-10-29T04:47:12;13.60;99.90
7192;DHT22;3637;51.494;11.958;2022-10-29T04:50:16;13.50;99.90
7192;DHT22;3637;51.494;11.958;2022-10-29T04:53:18;13.50;99.90
7192;DHT22;3637;51.494;11.958;2022-10-29T04:56:20;13.70;99.90
7192;DHT22;3637;51.494;11.958;2022-10-29T04:59:22;13.40;99.90
7192;DHT22;3637;51.494;11.958;2022-10-29T05:02:24;13.70;99.90
7192;DHT22;3637;51.494;11.958;2022-10-29T05:05:28;13.40;99.90
7192;DHT22;3637;51.494;11.958;2022-10-29T05:08:32;13.40;99.90
7192;DHT22;3637;51.494;11.958;2022-10-29T05:11:34;13.40;99.90
7192;DHT22;3637;51.494;11.958;2022-10-29T05:14:36;13.30;99.90
7192;DHT22;3637;51.494;11.958;2022-10-29T05:17:38;13.30;99.90
7192;DHT22;3637;51.494;11.958;2022-10-29T05:20:42;13.60;99.90
7192;DHT22;3637;51.494;11.958;2022-10-29T05:23:44;13.70;99.90
7192;DHT22;3637;51.494;11.958;2022-10-29T05:26:45;13.20;99.90
7192;DHT22;3637;51.494;11.958;2022-10-29T05:29:47;13.40;99.90
7192;DHT22;3637;51.494;11.958;2022-10-29T05:32:49;13.20;99.90
7192;DHT22;3637;51.494;11.958;2022-10-29T05:35:52;13.50;99.90
7192;DHT22;3637;51.494;11.958;2022-10-29T05:38:54;13.30;99.90
7192;DHT22;3637;51.494;11.958;2022-10-29T05:41:56;13.10;99.90
7192;DHT22;3637;51.494;11.958;2022-10-29T05:44:58;13.20;99.90
7192;DHT22;3637;51.494;11.958;2022-10-29T05:48:02;13.20;99.90
7192;DHT22;3637;51.494;11.958;2022-10-29T05:51:05;13.20;99.90
7192;DHT22;3637;51.494;11.958;2022-10-29T05:54:07;13.60;99.90
7192;DHT22;3637;51.494;11.958;2022-10-29T05:57:09;13.20;99.90
7192;DHT22;3637;51.494;11.958;2022-10-29T06:00:11;13.80;99.90
7192;DHT22;3637;51.494;11.958;2022-10-29T06:03:15;13.20;99.90
7192;DHT22;3637;51.494;11.958;2022-10-29T06:06:19;13.40;99.90
7192;DHT22;3637;51.494;11.958;2022-10-29T06:09:21;13.20;99.90
7192;DHT22;3637;51.494;11.958;2022-10-29T06:12:23;13.20;99.90
7192;DHT22;3637;51.494;11.958;2022-10-29T06:15:25;13.20;99.90
7192;DHT22;3637;51.494;11.958;2022-10-29T06:18:27;13.40;99.90
7192;DHT22;3637;51.494;11.958;2022-10-29T06:21:32;13.20;99.90
7192;DHT22;3637;51.494;11.958;2022-10-29T06:24:35;13.10;99.90
7192;DHT22;3637;51.494;11.958;2022-10-29T06:27:37;13.30;99.90
7192;DHT22;3637;51.494;11.958;2022-10-29T06:30:38;13.20;99.90
7192;DHT22;3637;51.494;11.958;2022-10-29T06:33:40;13.20;99.90
7192;DHT22;3637;51.494;11.958;2022-10-29T06:36:43;13.20;99.90
7192;DHT22;3637;51.494;11.958;2022-10-29T06:39:45;13.20;99.90
7192;DHT22;3637;51.494;11.958;2022-10-29T06:42:47;13.20;99.90
7192;DHT22;3637;51.494;11.958;2022-10-29T06:45:49;13.20;99.90
7192;DHT22;3637;51.494;11.958;2022-10-29T06:48:51;13.20;99.90
7192;DHT22;3637;51.494;11.958;2022-10-29T06:51:54;13.20;99.90
7192;DHT22;3637;51.494;11.958;2022-10-29T06:54:56;13.30;99.90
7192;DHT22;3637;51.494;11.958;2022-10-29T06:58:00;13.60;99.90
7192;DHT22;3637;51.494;11.958;2022-10-29T07:01:02;13.30;99.90
7192;DHT22;3637;51.494;11.958;2022-10-29T07:04:04;13.30;99.90
7192;DHT22;3637;51.494;11.958;2022-10-29T07:07:07;13.30;99.90
7192;DHT22;3637;51.494;11.958;2022-10-29T07:10:09;13.40;99.90
7192;DHT22;3637;51.494;11.958;2022-10-29T07:13:11;13.50;99.90
7192;DHT22;3637;51.494;11.958;2022-10-29T07:16:13;13.50;99.90
7192;DHT22;3637;51.494;11.958;2022-10-29T07:19:15;13.50;99.90
7192;DHT22;3637;51.494;11.958;2022-10-29T07:22:18;13.60;99.90
7192;DHT22;3637;51.494;11.958;2022-10-29T07:25:20;13.60;99.90
7192;DHT22;3637;51.494;11.958;2022-10-29T07:28:22;13.60;99.90
7192;DHT22;3637;51.494;11.958;2022-10-29T07:31:25;13.70;99.90
7192;DHT22;3637;51.494;11.958;2022-10-29T07:34:26;13.80;99.90
7192;DHT22;3637;51.494;11.958;2022-10-29T07:37:30;13.90;99.90
7192;DHT22;3637;51.494;11.958;2022-10-29T07:40:32;13.90;99.90
7192;DHT22;3637;51.494;11.958;2022-10-29T07:43:34;14.10;99.90
7192;DHT22;3637;51.494;11.958;2022-10-29T07:46:35;14.10;99.90
7192;DHT22;3637;51.494;11.958;2022-10-29T07:49:37;14.20;99.90
7192;DHT22;3637;51.494;11.958;2022-10-29T07:52:41;14.30;99.90
7192;DHT22;3637;51.494;11.958;2022-10-29T07:55:43;14.30;99.90
7192;DHT22;3637;51.494;11.958;2022-10-29T07:58:45;14.40;99.90
7192;DHT22;3637;51.494;11.958;2022-10-29T08:01:47;14.50;99.90
7192;DHT22;3637;51.494;11.958;2022-10-29T08:04:49;14.50;99.90
7192;DHT22;3637;51.494;11.958;2022-10-29T08:07:53;14.70;99.90
7192;DHT22;3637;51.494;11.958;2022-10-29T08:10:58;14.60;99.90
7192;DHT22;3637;51.494;11.958;2022-10-29T08:14:00;14.60;99.90
7192;DHT22;3637;51.494;11.958;2022-10-29T08:17:02;14.70;99.90
7192;DHT22;3637;51.494;11.958;2022-10-29T08:20:05;14.70;99.90
7192;DHT22;3637;51.494;11.958;2022-10-29T08:23:09;14.80;99.90
7192;DHT22;3637;51.494;11.958;2022-10-29T08:26:11;14.80;99.90
7192;DHT22;3637;51.494;11.958;2022-10-29T08:29:13;14.90;99.90
7192;DHT22;3637;51.494;11.958;2022-10-29T08:32:14;15.10;99.90
7192;DHT22;3637;51.494;11.958;2022-10-29T08:35:16;15.10;99.90
7192;DHT22;3637;51.494;11.958;2022-10-29T08:38:20;15.20;99.90
7192;DHT22;3637;51.494;11.958;2022-10-29T08:41:35;15.40;99.90
7192;DHT22;3637;51.494;11.958;2022-10-29T08:44:57;15.40;99.90
7192;DHT22;3637;51.494;11.958;2022-10-29T08:48:19;15.50;99.90
7192;DHT22;3637;51.494;11.958;2022-10-29T08:51:26;15.60;99.90
7192;DHT22;3637;51.494;11.958;2022-10-29T08:54:34;15.80;99.90
7192;DHT22;3637;51.494;11.958;2022-10-29T08:57:41;15.70;99.90
7192;DHT22;3637;51.494;11.958;2022-10-29T09:00:44;15.80;99.90
7192;DHT22;3637;51.494;11.958;2022-10-29T09:03:47;15.90;99.90
7192;DHT22;3637;51.494;11.958;2022-10-29T09:07:05;16.30;99.90
7192;DHT22;3637;51.494;11.958;2022-10-29T09:10:19;16.00;99.90
7192;DHT22;3637;51.494;11.958;2022-10-29T09:13:36;16.40;99.90
7192;DHT22;3637;51.494;11.958;2022-10-29T09:16:43;16.10;99.90
7192;DHT22;3637;51.494;11.958;2022-10-29T09:20:01;16.20;99.90
7192;DHT22;3637;51.494;11.958;2022-10-29T09:23:13;16.20;99.90
7192;DHT22;3637;51.494;11.958;2022-10-29T09:26:29;17.10;99.90
7192;DHT22;3637;51.494;11.958;2022-10-29T09:29:46;16.30;99.90
7192;DHT22;3637;51.494;11.958;2022-10-29T09:32:56;16.50;99.90
7192;DHT22;3637;51.494;11.958;2022-10-29T09:35:59;16.30;99.90
7192;DHT22;3637;51.494;11.958;2022-10-29T09:39:09;16.30;99.90
7192;DHT22;3637;51.494;11.958;2022-10-29T09:42:27;16.30;99.90
7192;DHT22;3637;51.494;11.958;2022-10-29T09:45:42;16.30;99.90
7192;DHT22;3637;51.494;11.958;2022-10-29T09:48:53;16.50;99.90
7192;DHT22;3637;51.494;11.958;2022-10-29T09:52:02;16.50;99.90
7192;DHT22;3637;51.494;11.958;2022-10-29T09:55:10;16.60;99.90
7192;DHT22;3637;51.494;11.958;2022-10-29T09:58:19;16.60;99.90
7192;DHT22;3637;51.494;11.958;2022-10-29T10:01:21;17.00;99.90
7192;DHT22;3637;51.494;11.958;2022-10-29T10:04:27;16.70;99.90
7192;DHT22;3637;51.494;11.958;2022-10-29T10:07:30;16.70;99.90
7192;DHT22;3637;51.494;11.958;2022-10-29T10:10:33;16.80;99.90
7192;DHT22;3637;51.494;11.958;2022-10-29T10:13:50;17.20;99.90
7192;DHT22;3637;51.494;11.958;2022-10-29T10:16:56;17.00;99.90
7192;DHT22;3637;51.494;11.958;2022-10-29T10:19:58;17.00;99.90
7192;DHT22;3637;51.494;11.958;2022-10-29T10:23:01;17.00;99.90
7192;DHT22;3637;51.494;11.958;2022-10-29T10:26:04;17.00;99.90
7192;DHT22;3637;51.494;11.958;2022-10-29T10:29:13;17.40;99.90
7192;DHT22;3637;51.494;11.958;2022-10-29T10:32:15;16.90;99.90
7192;DHT22;3637;51.494;11.958;2022-10-29T10:35:26;17.10;99.90
7192;DHT22;3637;51.494;11.958;2022-10-29T10:38:28;17.10;99.90
7192;DHT22;3637;51.494;11.958;2022-10-29T10:41:41;17.10;99.90
7192;DHT22;3637;51.494;11.958;2022-10-29T10:44:47;17.10;99.90
7192;DHT22;3637;51.494;11.958;2022-10-29T10:47:54;17.20;99.90
7192;DHT22;3637;51.494;11.958;2022-10-29T10:51:09;17.30;99.90
7192;DHT22;3637;51.494;11.958;2022-10-29T10:54:29;17.40;99.90
7192;DHT22;3637;51.494;11.958;2022-10-29T10:57:34;17.40;99.90
7192;DHT22;3637;51.494;11.958;2022-10-29T11:00:40;17.50;99.90
7192;DHT22;3637;51.494;11.958;2022-10-29T11:03:46;17.60;99.90
7192;DHT22;3637;51.494;11.958;2022-10-29T11:06:50;17.60;99.90
7192;DHT22;3637;51.494;11.958;2022-10-29T11:09:56;17.70;99.90
7192;DHT22;3637;51.494;11.958;2022-10-29T11:13:00;17.80;99.90
7192;DHT22;3637;51.494;11.958;2022-10-29T11:16:12;17.80;99.90
7192;DHT22;3637;51.494;11.958;2022-10-29T11:19:22;17.90;99.90
7192;DHT22;3637;51.494;11.958;2022-10-29T11:22:28;17.90;99.90
7192;DHT22;3637;51.494;11.958;2022-10-29T11:25:38;17.90;99.90
7192;DHT22;3637;51.494;11.958;2022-10-29T11:28:46;18.00;99.90
7192;DHT22;3637;51.494;11.958;2022-10-29T11:31:55;18.00;99.90
7192;DHT22;3637;51.494;11.958;2022-10-29T11:35:03;18.10;99.90
7192;DHT22;3637;51.494;11.958;2022-10-29T11:38:10;18.20;99.90
7192;DHT22;3637;51.494;11.958;2022-10-29T11:41:20;18.20;99.90
7192;DHT22;3637;51.494;11.958;2022-10-29T11:44:25;18.30;99.90
7192;DHT22;3637;51.494;11.958;2022-10-29T11:51:02;18.50;99.90
7192;DHT22;3637;51.494;11.958;2022-10-29T11:54:15;18.50;99.90
7192;DHT22;3637;51.494;11.958;2022-10-29T11:57:30;18.60;99.90
7192;DHT22;3637;51.494;11.958;2022-10-29T12:00:49;18.80;99.90
7192;DHT22;3637;51.494;11.958;2022-10-29T12:04:23;18.80;99.90
7192;DHT22;3637;51.494;11.958;2022-10-29T12:07:39;18.90;99.90
7192;DHT22;3637;51.494;11.958;2022-10-29T12:10:53;19.00;99.90
7192;DHT22;3637;51.494;11.958;2022-10-29T12:14:05;19.10;99.90
7192;DHT22;3637;51.494;11.958;2022-10-29T12:17:13;19.10;99.90
7192;DHT22;3637;51.494;11.958;2022-10-29T12:20:21;19.10;99.90
7192;DHT22;3637;51.494;11.958;2022-10-29T12:23:35;19.10;99.90
7192;DHT22;3637;51.494;11.958;2022-10-29T12:26:45;19.10;99.90
7192;DHT22;3637;51.494;11.958;2022-10-29T12:29:52;19.10;99.90
7192;DHT22;3637;51.494;11.958;2022-10-29T12:33:03;19.00;99.90
7192;DHT22;3637;51.494;11.958;2022-10-29T12:36:13;19.00;99.90
7192;DHT22;3637;51.494;11.958;2022-10-29T12:39:26;19.00;99.90
7192;DHT22;3637;51.494;11.958;2022-10-29T12:42:28;18.90;99.90
7192;DHT22;3637;51.494;11.958;2022-10-29T12:45:34;18.90;99.90
7192;DHT22;3637;51.494;11.958;2022-10-29T12:48:45;18.90;99.90
7192;DHT22;3637;51.494;11.958;2022-10-29T12:51:53;18.80;99.90
7192;DHT22;3637;51.494;11.958;2022-10-29T12:54:57;19.10;99.90
7192;DHT22;3637;51.494;11.958;2022-10-29T13:01:45;18.80;99.90
7192;DHT22;3637;51.494;11.958;2022-10-29T13:05:11;18.80;99.90
7192;DHT22;3637;51.494;11.958;2022-10-29T13:08:33;18.80;99.90
7192;DHT22;3637;51.494;11.958;2022-10-29T13:11:42;19.10;99.90
7192;DHT22;3637;51.494;11.958;2022-10-29T13:14:47;18.70;99.90
7192;DHT22;3637;51.494;11.958;2022-10-29T13:17:54;18.80;99.90
7192;DHT22;3637;51.494;11.958;2022-10-29T13:20:57;18.70;99.90
7192;DHT22;3637;51.494;11.958;2022-10-29T13:24:04;18.70;99.90
7192;DHT22;3637;51.494;11.958;2022-10-29T13:27:31;18.70;99.90
7192;DHT22;3637;51.494;11.958;2022-10-29T13:30:35;18.70;99.90
7192;DHT22;3637;51.494;11.958;2022-10-29T13:33:49;18.70;99.90
7192;DHT22;3637;51.494;11.958;2022-10-29T13:36:51;18.60;99.90
7192;DHT22;3637;51.494;11.958;2022-10-29T13:43:32;18.60;99.90
7192;DHT22;3637;51.494;11.958;2022-10-29T13:46:44;18.60;99.90
7192;DHT22;3637;51.494;11.958;2022-10-29T13:49:47;18.50;99.90
7192;DHT22;3637;51.494;11.958;2022-10-29T13:52:52;18.50;99.90
7192;DHT22;3637;51.494;11.958;2022-10-29T13:55:57;18.50;99.90
7192;DHT22;3637;51.494;11.958;2022-10-29T13:59:05;18.60;99.90
7192;DHT22;3637;51.494;11.958;2022-10-29T14:02:25;18.60;99.90
7192;DHT22;3637;51.494;11.958;2022-10-29T14:05:32;18.70;99.90
7192;DHT22;3637;51.494;11.958;2022-10-29T14:08:39;18.70;99.90
7192;DHT22;3637;51.494;11.958;2022-10-29T14:11:43;18.70;99.90
7192;DHT22;3637;51.494;11.958;2022-10-29T14:14:55;18.80;99.90
7192;DHT22;3637;51.494;11.958;2022-10-29T14:18:16;18.60;99.90
7192;DHT22;3637;51.494;11.958;2022-10-29T14:21:22;18.60;99.90
7192;DHT22;3637;51.494;11.958;2022-10-29T14:24:24;18.60;99.90
7192;DHT22;3637;51.494;11.958;2022-10-29T14:27:26;18.60;99.90
7192;DHT22;3637;51.494;11.958;2022-10-29T14:30:29;18.60;99.90
7192;DHT22;3637;51.494;11.958;2022-10-29T14:33:33;18.50;99.90
7192;DHT22;3637;51.494;11.958;2022-10-29T14:36:39;18.50;99.90
7192;DHT22;3637;51.494;11.958;2022-10-29T14:39:43;18.50;99.90
7192;DHT22;3637;51.494;11.958;2022-10-29T14:42:48;18.50;99.90
7192;DHT22;3637;51.494;11.958;2022-10-29T14:45:55;18.50;99.90
7192;DHT22;3637;51.494;11.958;2022-10-29T14:49:14;18.50;99.90
7192;DHT22;3637;51.494;11.958;2022-10-29T14:52:28;18.40;99.90
7192;DHT22;3637;51.494;11.958;2022-10-29T14:55:33;18.40;99.90
7192;DHT22;3637;51.494;11.958;2022-10-29T14:58:37;18.30;99.90
7192;DHT22;3637;51.494;11.958;2022-10-29T15:02:03;18.30;99.90
7192;DHT22;3637;51.494;11.958;2022-10-29T15:05:21;18.20;99.90
7192;DHT22;3637;51.494;11.958;2022-10-29T15:08:23;18.20;99.90
7192;DHT22;3637;51.494;11.958;2022-10-29T15:11:34;18.10;99.90
7192;DHT22;3637;51.494;11.958;2022-10-29T15:14:46;18.10;99.90
7192;DHT22;3637;51.494;11.958;2022-10-29T15:17:52;18.00;99.90
7192;DHT22;3637;51.494;11.958;2022-10-29T15:20:55;18.20;99.90
7192;DHT22;3637;51.494;11.958;2022-10-29T15:24:01;17.90;99.90
7192;DHT22;3637;51.494;11.958;2022-10-29T15:27:04;18.10;99.90
7192;DHT22;3637;51.494;11.958;2022-10-29T15:30:15;17.80;99.90
7192;DHT22;3637;51.494;11.958;2022-10-29T15:33:21;17.90;99.90
7192;DHT22;3637;51.494;11.958;2022-10-29T15:36:25;17.80;99.90
7192;DHT22;3637;51.494;11.958;2022-10-29T15:39:28;17.70;99.90
7192;DHT22;3637;51.494;11.958;2022-10-29T15:42:48;17.70;99.90
7192;DHT22;3637;51.494;11.958;2022-10-29T15:45:55;17.70;99.90
7192;DHT22;3637;51.494;11.958;2022-10-29T15:48:59;17.70;99.90
7192;DHT22;3637;51.494;11.958;2022-10-29T15:52:01;17.60;99.90
7192;DHT22;3637;51.494;11.958;2022-10-29T15:55:08;17.60;99.90
7192;DHT22;3637;51.494;11.958;2022-10-29T15:58:13;17.60;99.90
7192;DHT22;3637;51.494;11.958;2022-10-29T16:01:15;17.50;99.90
7192;DHT22;3637;51.494;11.958;2022-10-29T16:04:19;17.50;99.90
7192;DHT22;3637;51.494;11.958;2022-10-29T16:07:20;17.40;99.90
7192;DHT22;3637;51.494;11.958;2022-10-29T16:10:22;17.50;99.90
7192;DHT22;3637;51.494;11.958;2022-10-29T16:13:25;17.40;99.90
7192;DHT22;3637;51.494;11.958;2022-10-29T16:16:29;17.40;99.90
7192;DHT22;3637;51.494;11.958;2022-10-29T16:19:33;17.40;99.90
7192;DHT22;3637;51.494;11.958;2022-10-29T16:22:35;17.40;99.90
7192;DHT22;3637;51.494;11.958;2022-10-29T16:25:37;17.30;99.90
7192;DHT22;3637;51.494;11.958;2022-10-29T16:28:39;17.30;99.90
7192;DHT22;3637;51.494;11.958;2022-10-29T16:31:43;17.20;99.90
7192;DHT22;3637;51.494;11.958;2022-10-29T16:34:46;17.30;99.90
7192;DHT22;3637;51.494;11.958;2022-10-29T16:37:49;17.20;99.90
7192;DHT22;3637;51.494;11.958;2022-10-29T16:40:51;17.40;99.90
7192;DHT22;3637;51.494;11.958;2022-10-29T16:43:53;17.20;99.90
7192;DHT22;3637;51.494;11.958;2022-10-29T16:46:55;17.10;99.90
7192;DHT22;3637;51.494;11.958;2022-10-29T16:49:58;17.10;99.90
7192;DHT22;3637;51.494;11.958;2022-10-29T16:53:03;17.20;99.90
7192;DHT22;3637;51.494;11.958;2022-10-29T16:56:06;17.10;99.90
7192;DHT22;3637;51.494;11.958;2022-10-29T16:59:08;17.10;99.90
7192;DHT22;3637;51.494;11.958;2022-10-29T17:02:10;17.10;99.90
7192;DHT22;3637;51.494;11.958;2022-10-29T17:05:14;16.90;99.90
7192;DHT22;3637;51.494;11.958;2022-10-29T17:08:16;17.00;99.90
7192;DHT22;3637;51.494;11.958;2022-10-29T17:11:18;17.10;99.90
7192;DHT22;3637;51.494;11.958;2022-10-29T17:14:20;17.10;99.90
7192;DHT22;3637;51.494;11.958;2022-10-29T17:17:22;17.10;99.90
7192;DHT22;3637;51.494;11.958;2022-10-29T17:20:25;16.80;99.90
7192;DHT22;3637;51.494;11.958;2022-10-29T17:23:27;16.80;99.90
7192;DHT22;3637;51.494;11.958;2022-10-29T17:26:30;16.70;99.90
7192;DHT22;3637;51.494;11.958;2022-10-29T17:29:32;16.80;99.90
7192;DHT22;3637;51.494;11.958;2022-10-29T17:32:34;16.70;99.90
7192;DHT22;3637;51.494;11.958;2022-10-29T17:35:37;16.80;99.90
7192;DHT22;3637;51.494;11.958;2022-10-29T17:38:40;16.80;99.90
7192;DHT22;3637;51.494;11.958;2022-10-29T17:41:41;16.70;99.90
7192;DHT22;3637;51.494;11.958;2022-10-29T17:44:46;16.70;99.90
7192;DHT22;3637;51.494;11.958;2022-10-29T17:47:48;16.60;99.90
7192;DHT22;3637;51.494;11.958;2022-10-29T17:50:56;16.60;99.90
7192;DHT22;3637;51.494;11.958;2022-10-29T17:53:59;16.60;99.90
7192;DHT22;3637;51.494;11.958;2022-10-29T17:57:01;16.60;99.90
7192;DHT22;3637;51.494;11.958;2022-10-29T18:00:03;16.50;99.90
7192;DHT22;3637;51.494;11.958;2022-10-29T18:03:05;16.50;99.90
7192;DHT22;3637;51.494;11.958;2022-10-29T18:06:10;16.40;99.90
7192;DHT22;3637;51.494;11.958;2022-10-29T18:09:12;16.40;99.90
7192;DHT22;3637;51.494;11.958;2022-10-29T18:12:14;16.40;99.90
7192;DHT22;3637;51.494;11.958;2022-10-29T18:15:16;16.40;99.90
7192;DHT22;3637;51.494;11.958;2022-10-29T18:18:18;16.50;99.90
7192;DHT22;3637;51.494;11.958;2022-10-29T18:21:22;16.30;99.90
7192;DHT22;3637;51.494;11.958;2022-10-29T18:24:25;16.30;99.90
7192;DHT22;3637;51.494;11.958;2022-10-29T18:27:27;16.30;99.90
7192;DHT22;3637;51.494;11.958;2022-10-29T18:30:29;16.20;99.90
7192;DHT22;3637;51.494;11.958;2022-10-29T18:33:31;16.20;99.90
7192;DHT22;3637;51.494;11.958;2022-10-29T18:36:34;16.10;99.90
7192;DHT22;3637;51.494;11.958;2022-10-29T18:39:36;16.10;99.90
7192;DHT22;3637;51.494;11.958;2022-10-29T18:42:38;16.10;99.90
7192;DHT22;3637;51.494;11.958;2022-10-29T18:45:40;16.10;99.90
7192;DHT22;3637;51.494;11.958;2022-10-29T18:48:43;16.10;99.90
7192;DHT22;3637;51.494;11.958;2022-10-29T18:51:47;16.00;99.90
7192;DHT22;3637;51.494;11.958;2022-10-29T18:54:49;16.10;99.90
7192;DHT22;3637;51.494;11.958;2022-10-29T18:57:51;16.10;99.90
7192;DHT22;3637;51.494;11.958;2022-10-29T19:00:53;16.00;99.90
7192;DHT22;3637;51.494;11.958;2022-10-29T19:03:56;15.90;99.90
7192;DHT22;3637;51.494;11.958;2022-10-29T19:06:59;15.90;99.90
7192;DHT22;3637;51.494;11.958;2022-10-29T19:10:01;15.90;99.90
7192;DHT22;3637;51.494;11.958;2022-10-29T19:13:04;15.90;99.90
7192;DHT22;3637;51.494;11.958;2022-10-29T19:16:08;16.10;99.90
7192;DHT22;3637;51.494;11.958;2022-10-29T19:19:11;15.90;99.90
7192;DHT22;3637;51.494;11.958;2022-10-29T19:22:15;15.90;99.90
7192;DHT22;3637;51.494;11.958;2022-10-29T19:25:17;15.90;99.90
7192;DHT22;3637;51.494;11.958;2022-10-29T19:28:19;16.20;99.90
7192;DHT22;3637;51.494;11.958;2022-10-29T19:31:22;15.90;99.90
7192;DHT22;3637;51.494;11.958;2022-10-29T19:34:25;15.90;99.90
7192;DHT22;3637;51.494;11.958;2022-10-29T19:37:29;15.90;99.90
7192;DHT22;3637;51.494;11.958;2022-10-29T19:40:31;16.20;99.90
7192;DHT22;3637;51.494;11.958;2022-10-29T19:43:33;15.80;99.90
7192;DHT22;3637;51.494;11.958;2022-10-29T19:46:35;15.80;99.90
7192;DHT22;3637;51.494;11.958;2022-10-29T19:49:36;15.80;99.90
7192;DHT22;3637;51.494;11.958;2022-10-29T19:52:40;15.80;99.90
7192;DHT22;3637;51.494;11.958;2022-10-29T19:55:42;15.70;99.90
7192;DHT22;3637;51.494;11.958;2022-10-29T19:58:44;15.70;99.90
7192;DHT22;3637;51.494;11.958;2022-10-29T20:01:47;15.60;99.90